Lotus, CA (95651)

7:31 PM PST on February 05, 2016 (GMT -0800)
Rock-N-Water | | Change Station
CLOSE
Current Station
Personal Weather Station
Location: Lotus, CA
Elevation: 715 ft
Nearby Weather Stations

Elev 715 ft 38.82 °N, 120.93 °W | Updated 7 minutes ago

Clear
Clear
43.9 °F
Feels Like 44 °F
N
0.0
Wind Variable Wind from SE

Today
High -- | Low -- °F
--% Chance of Precip.
Yesterday
High -- | Low -- °F
Precip. -- in
Pressure 30.41 in
Visibility 10.0 miles
Clouds Clear
Windchill 44 °F
Dew Point 40 °F
Humidity 85%
Rainfall 0.00 in
Snow Depth Not available.
7:06 AM 5:29 PM
Waning Crescent, 8% visible
METAR KAUN 060315Z AUTO 33003KT 10SM CLR 08/07 A3041 RMK AO1
Pressure 30.41 in
Visibility 10.0 miles
Clouds Clear
Windchill 44 °F
Dew Point 40 °F
Humidity 85%
Rainfall 0.00 in
Snow Depth Not available.
7:06 AM 5:29 PM
Waning Crescent, 8% visible
METAR KAUN 060315Z AUTO 33003KT 10SM CLR 08/07 A3041 RMK AO1

10-Day Weather Forecast

Almanac

Astronomy

Feb. 05, 2016 Rise Set
Actual Time
Civil Twilight
Nautical Twilight
Astronomical Twilight
Moon
Length of Visible Light
Length of Day
Tomorrow will be .
, % of the Moon is Illuminated

Today's Extremes

State Highs State Lows

Community

WunderPhotos

Upload Photos

1,890,919 photos uploaded!

WunderBlog® & News

Nearby

Air Quality

  Air Quality AQ Index Pollutant
Not available.

Snow Depth

Station Depth Elevation

Earthquake Activity

City Distance Mag. Time & Date
Minimum magnitude displayed is 2.5.

Coastal Water Temperatures

Place Temperature

Stations

Nearby Weather Stations

Station Location Temp. Windchill Dew Point Humidity Wind Precip. Elev Updated Type
                   

Watches & Warnings

There are currently no watches in effect.